This is the latest recevied weather packets stored in our database for station/object AC4AG. If no packets are shown the sender has not sent any weather packets the latest 10 day(s).
| Time | Temp. | Humidity | Pressure | Rain* | Wind** | Luminosity | Snow |
|---|---|---|---|---|---|---|---|
| 1777732463 | 11.67° C | 60% | 1016.7 hPa | 0 mm | - | 587 W/m² | - |
| 1777732160 | 11.11° C | 63% | 1016.5 hPa | 0 mm | - | 571 W/m² | - |
| 1777731857 | 11.11° C | 61% | 1016.8 hPa | 0 mm | - | 554 W/m² | - |
| 1777731554 | 11.67° C | 64% | 1016.6 hPa | 0 mm | - | 535 W/m² | - |
| 1777731252 | 11.11° C | 65% | 1016.5 hPa | 0 mm | - | 521 W/m² | - |
| 1777730949 | 10.56° C | 66% | 1016.5 hPa | 0 mm | - | 504 W/m² | - |
| 1777730648 | 10.56° C | 63% | 1016.8 hPa | 0 mm | - | 486 W/m² | - |
| 1777730343 | 10° C | 67% | 1016.9 hPa | 0 mm | - | 465 W/m² | - |
| 1777730040 | 10° C | 66% | 1017.1 hPa | 0 mm | - | 453 W/m² | - |
| 1777729736 | 10° C | 62% | 1017.3 hPa | 0 mm | - | 427 W/m² | - |
| 1777729433 | 10° C | 65% | 1017 hPa | 0 mm | - | 414 W/m² | - |
| 1777729129 | 10.56° C | 68% | 1017 hPa | 0 mm | - | 413 W/m² | - |
| 1777728826 | 10° C | 70% | 1017.1 hPa | 0 mm | - | 384 W/m² | - |
| 1777728523 | 9.44° C | 73% | 1017.1 hPa | 0 mm | - | 357 W/m² | - |
| 1777728220 | 8.89° C | 75% | 1017.1 hPa | 0 mm | - | 345 W/m² | - |
| 1777727917 | 8.89° C | 75% | 1017 hPa | 0 mm | - | 332 W/m² | - |
| 1777727614 | 8.89° C | 77% | 1017.1 hPa | 0 mm | - | 312 W/m² | - |
| 1777727311 | 8.33° C | 77% | 1017 hPa | 0 mm | - | 296 W/m² | - |
| 1777727009 | 8.33° C | 77% | 1017.1 hPa | 0 mm | - | 275 W/m² | - |
| 1777726706 | 8.33° C | 79% | 1017 hPa | 0 mm | - | 264 W/m² | - |
| 1777726403 | 7.78° C | 80% | 1017 hPa | 0 mm | - | 247 W/m² | - |
| 1777726100 | 7.78° C | 81% | 1017 hPa | 0 mm | - | 230 W/m² | - |
| 1777725797 | 7.78° C | 81% | 1017 hPa | 0 mm | - | 214 W/m² | - |
| 1777725494 | 7.78° C | 82% | 1017 hPa | 0 mm | - | 200 W/m² | - |
| 1777725192 | 7.22° C | 84% | 1017 hPa | 0 mm | - | 184 W/m² | - |
* Rain latest hour (hover to see other rain measurements)
** Current wind speed in m/s (hover to see current wind gust speed)